createdAt,value
2023-01-26T00:01:54.019Z,68.40
2023-01-26T00:04:22.053Z,55.50
2023-01-26T00:06:50.789Z,57.00
2023-01-26T04:34:19.147Z,81.20
2023-01-26T04:36:46.478Z,72.60
2023-01-26T04:39:17.175Z,85.50
2023-01-26T04:41:47.430Z,79.70
2023-01-26T04:44:16.233Z,83.30
2023-01-26T04:46:43.092Z,97.80
2023-01-26T04:49:12.391Z,90.30
2023-01-26T04:51:39.623Z,75.20
2023-01-26T04:54:06.350Z,83.50
2023-01-26T04:56:36.729Z,80.20
2023-01-26T04:59:05.243Z,83.20
2023-01-26T05:01:33.061Z,87.80
2023-01-26T05:04:00.736Z,89.90
2023-01-26T05:06:29.153Z,92.60
2023-01-26T05:08:56.678Z,82.10
2023-01-26T05:11:23.867Z,90.60
2023-01-26T05:14:17.826Z,83.40
2023-01-26T05:17:07.313Z,97.50
2023-01-26T05:19:46.995Z,116.60
2023-01-26T05:22:32.182Z,106.00
2023-01-26T05:25:36.968Z,103.30
2023-01-26T05:28:08.173Z,90.20
2023-01-26T05:30:35.043Z,85.20
2023-01-26T05:33:05.644Z,94.80
2023-01-26T05:35:33.147Z,92.90
2023-01-26T05:38:00.247Z,115.70
2023-01-26T05:40:29.174Z,93.70
2023-01-26T05:42:56.225Z,96.30
2023-01-26T05:45:44.696Z,85.60
2023-01-26T05:48:12.829Z,87.80
2023-01-26T05:50:40.206Z,84.90
2023-01-26T05:53:19.023Z,108.00
2023-01-26T05:55:46.007Z,85.90
2023-01-26T05:58:13.764Z,92.50
2023-01-26T06:00:43.185Z,93.40
2023-01-26T06:03:14.487Z,89.60
2023-01-26T06:05:42.010Z,88.70
2023-01-26T06:08:16.002Z,103.60
2023-01-26T06:11:00.683Z,80.30
2023-01-26T06:13:40.637Z,97.50
2023-01-26T06:16:20.591Z,85.20
2023-01-26T06:18:51.067Z,73.90
2023-01-26T06:21:18.245Z,80.90
2023-01-26T06:23:44.943Z,80.20
2023-01-26T06:26:12.404Z,84.50
2023-01-26T06:28:38.999Z,84.20
2023-01-26T06:31:06.681Z,83.60
2023-01-26T06:33:34.710Z,96.00
2023-01-26T06:36:03.703Z,81.50
2023-01-26T06:38:30.612Z,84.10
2023-01-26T06:41:02.281Z,88.80
2023-01-26T06:43:31.016Z,80.90
2023-01-26T06:45:58.040Z,93.50
2023-01-26T06:48:25.508Z,90.20
2023-01-26T06:50:52.310Z,96.40
2023-01-26T06:53:29.967Z,96.40
2023-01-26T06:56:16.819Z,99.30
2023-01-26T06:59:10.061Z,90.00
2023-01-26T07:01:49.254Z,98.50
2023-01-26T07:04:16.314Z,99.60
2023-01-26T07:06:43.091Z,87.20
2023-01-26T07:09:10.120Z,95.40
2023-01-26T07:11:37.111Z,91.80
2023-01-26T07:14:03.917Z,87.60
2023-01-26T07:16:32.669Z,91.90
2023-01-26T07:19:00.420Z,88.30
2023-01-26T07:21:26.942Z,95.90
2023-01-26T07:23:54.686Z,83.70
2023-01-26T07:26:21.491Z,87.40
2023-01-26T07:28:48.496Z,93.40
2023-01-26T07:31:15.108Z,96.50
2023-01-26T07:33:41.638Z,92.40
2023-01-26T07:36:10.284Z,82.50
2023-01-26T07:38:36.934Z,90.20
2023-01-26T07:41:05.711Z,87.10
2023-01-26T07:43:35.947Z,92.30
2023-01-26T07:46:02.519Z,92.20
2023-01-26T07:48:29.260Z,92.40
2023-01-26T07:51:01.025Z,86.80
2023-01-26T07:53:28.755Z,87.70
2023-01-26T07:56:12.500Z,107.50
2023-01-26T07:58:39.403Z,83.60
2023-01-26T08:01:06.793Z,91.30
2023-01-26T08:03:34.498Z,88.20
2023-01-26T08:06:01.467Z,95.10
2023-01-26T08:08:28.091Z,95.10
2023-01-26T08:10:59.843Z,100.50
2023-01-26T08:13:35.209Z,109.60
2023-01-26T08:16:10.086Z,100.10
2023-01-26T08:36:04.037Z,103.80
2023-01-26T08:38:32.998Z,88.90
2023-01-26T08:41:01.716Z,91.40
2023-01-26T08:43:29.907Z,85.00
2023-01-26T08:45:58.085Z,71.20
2023-01-26T08:48:26.153Z,90.00
2023-01-26T08:50:54.908Z,80.90
2023-01-26T08:53:23.569Z,92.30
2023-01-26T08:55:53.987Z,121.40
2023-01-26T08:58:21.887Z,78.50
2023-01-26T09:00:49.707Z,55.10
2023-01-26T09:03:18.304Z,48.90
2023-01-26T09:05:46.872Z,61.40
2023-01-26T09:08:15.031Z,55.20
2023-01-26T09:10:45.288Z,57.40
2023-01-26T09:13:13.424Z,48.70
2023-01-26T09:15:41.408Z,51.00
2023-01-26T09:18:11.491Z,51.10
2023-01-26T09:20:39.633Z,57.90
2023-01-26T09:23:07.595Z,48.40
2023-01-26T09:25:39.098Z,46.30
2023-01-26T09:28:07.241Z,50.90
2023-01-26T09:30:35.876Z,41.20
2023-01-26T09:33:04.483Z,45.20
2023-01-26T09:35:35.420Z,38.30
2023-01-26T09:38:03.652Z,42.50
2023-01-26T09:41:06.142Z,40.10
2023-01-26T09:43:49.662Z,39.60
2023-01-26T09:46:48.442Z,37.60
2023-01-26T09:49:42.796Z,34.40
2023-01-26T09:52:16.316Z,32.40
2023-01-26T09:54:47.312Z,31.20
2023-01-26T09:57:20.059Z,43.40
2023-01-26T09:59:53.390Z,35.70
2023-01-26T10:02:29.342Z,38.10
2023-01-26T10:04:58.680Z,36.50
2023-01-26T10:07:26.998Z,32.70
2023-01-26T10:09:55.166Z,31.00
2023-01-26T10:12:28.553Z,33.10
2023-01-26T10:15:20.081Z,36.40
2023-01-26T10:17:48.081Z,33.30
2023-01-26T10:20:32.821Z,31.60
2023-01-26T10:23:12.460Z,31.00
2023-01-26T10:25:41.789Z,28.30
2023-01-26T10:28:14.606Z,28.30
2023-01-26T10:30:46.705Z,26.90
2023-01-26T10:33:16.449Z,29.80
2023-01-26T10:35:44.831Z,28.10
2023-01-26T10:38:38.204Z,31.00
2023-01-26T10:41:18.417Z,33.60
2023-01-26T10:43:57.821Z,27.70
2023-01-26T10:46:38.699Z,30.90
2023-01-26T10:49:09.725Z,35.40
2023-01-26T10:51:41.517Z,30.40
2023-01-26T10:54:27.433Z,32.50
2023-01-26T10:56:59.679Z,27.80
2023-01-26T10:59:43.987Z,30.40
2023-01-26T11:02:12.487Z,28.20
2023-01-26T11:04:40.392Z,25.00
2023-01-26T11:07:26.414Z,34.30
2023-01-26T11:09:54.871Z,30.10
2023-01-26T11:12:25.042Z,30.40
2023-01-26T11:15:04.007Z,38.50
2023-01-26T11:18:06.704Z,36.70
2023-01-26T11:20:57.828Z,34.50
2023-01-26T11:23:53.050Z,34.60
2023-01-26T11:26:27.268Z,34.80
2023-01-26T11:29:19.651Z,34.50
2023-01-26T11:32:06.519Z,46.30
2023-01-26T11:34:40.972Z,37.10
2023-01-26T11:37:38.722Z,39.10
2023-01-26T11:40:25.184Z,37.20
2023-01-26T11:43:18.015Z,36.50
2023-01-26T11:46:02.015Z,31.10
2023-01-26T11:48:34.887Z,38.20
2023-01-26T11:51:40.681Z,39.30
2023-01-26T11:54:12.088Z,42.20
2023-01-26T11:59:25.417Z,42.10
2023-01-26T12:02:01.588Z,43.10
2023-01-26T12:04:31.439Z,45.10
2023-01-26T12:07:03.973Z,44.80
2023-01-26T12:09:38.030Z,38.20
2023-01-26T12:12:20.330Z,35.50
2023-01-26T12:14:57.245Z,41.20
2023-01-26T12:17:40.519Z,45.70
2023-01-26T12:20:39.561Z,36.20
2023-01-26T12:23:26.232Z,43.40
2023-01-26T12:26:03.887Z,45.50
2023-01-26T12:28:34.908Z,39.00
2023-01-26T12:31:31.326Z,35.80
2023-01-26T12:34:04.040Z,39.00
2023-01-26T12:37:09.765Z,33.80
2023-01-26T12:40:00.057Z,34.40
2023-01-26T12:42:47.110Z,37.00
2023-01-26T12:45:24.088Z,40.70
2023-01-26T12:47:53.589Z,36.80
2023-01-26T12:50:31.168Z,37.90
2023-01-26T12:53:02.112Z,34.10
2023-01-26T12:56:04.634Z,33.90
2023-01-26T12:58:41.058Z,33.80
2023-01-26T13:01:13.050Z,32.40
2023-01-26T13:04:04.047Z,38.20
2023-01-26T13:06:32.571Z,35.60
2023-01-26T13:09:04.200Z,38.80
2023-01-26T13:11:53.048Z,30.90
2023-01-26T13:14:28.333Z,29.80
2023-01-26T13:16:57.690Z,34.60
2023-01-26T13:19:44.127Z,48.90
2023-01-26T13:22:24.053Z,34.60
2023-01-26T13:25:18.806Z,45.50
2023-01-26T13:27:57.489Z,40.40
2023-01-26T13:30:25.765Z,40.80
2023-01-26T13:33:05.460Z,42.90
2023-01-26T13:35:39.038Z,47.70
2023-01-26T13:38:29.142Z,38.10
2023-01-26T13:40:58.951Z,37.80
2023-01-26T13:43:31.475Z,44.20
2023-01-26T13:46:15.189Z,40.00
2023-01-26T13:48:50.387Z,34.40
2023-01-26T13:51:23.685Z,45.70
2023-01-26T13:54:04.493Z,37.40
2023-01-26T13:56:41.756Z,38.50
2023-01-26T13:59:14.539Z,47.30
2023-01-26T14:01:43.402Z,42.30
2023-01-26T14:04:37.797Z,50.30
2023-01-26T14:07:19.229Z,52.20
2023-01-26T14:09:49.940Z,49.70
2023-01-26T14:12:23.846Z,48.40
2023-01-26T14:14:53.951Z,57.10
2023-01-26T14:17:29.005Z,62.90
2023-01-26T14:19:58.432Z,56.50
2023-01-26T14:22:28.336Z,54.90
2023-01-26T14:24:56.226Z,63.00
2023-01-26T14:27:29.925Z,66.30
2023-01-26T14:29:59.722Z,79.70
2023-01-26T14:32:29.893Z,75.70
2023-01-26T14:34:59.208Z,79.70
2023-01-26T14:37:27.913Z,77.90
2023-01-26T14:40:18.339Z,100.10
2023-01-26T14:42:48.370Z,104.70
2023-01-26T14:45:16.290Z,74.60
2023-01-26T14:47:46.891Z,79.70
2023-01-26T14:50:28.300Z,82.90
2023-01-26T14:52:56.845Z,68.90
2023-01-26T14:55:28.158Z,66.20
2023-01-26T14:57:59.424Z,69.60
2023-01-26T15:00:29.029Z,70.10
2023-01-26T15:02:57.905Z,80.10
2023-01-26T15:05:34.282Z,77.80
2023-01-26T15:08:04.239Z,73.20
2023-01-26T15:10:35.316Z,69.80
2023-01-26T15:13:18.808Z,79.10
2023-01-26T15:15:49.033Z,78.10
2023-01-26T15:18:19.442Z,72.30
2023-01-26T15:21:00.347Z,62.00
2023-01-26T15:23:30.724Z,71.60
2023-01-26T15:26:25.291Z,72.70
2023-01-26T15:28:54.227Z,70.60
2023-01-26T15:31:35.948Z,60.10
2023-01-26T15:34:04.587Z,63.00
2023-01-26T15:36:45.815Z,62.30
2023-01-26T15:39:15.912Z,66.70
2023-01-26T15:42:13.326Z,62.40
2023-01-26T15:44:41.467Z,62.40
2023-01-26T16:03:04.284Z,60.90
2023-01-26T16:05:32.415Z,54.90
2023-01-26T16:08:00.476Z,52.80
2023-01-26T16:10:29.178Z,54.90
2023-01-26T16:12:57.339Z,57.00
2023-01-26T16:15:44.578Z,55.00
2023-01-26T16:18:13.576Z,56.90
2023-01-26T16:20:42.683Z,58.80
2023-01-26T16:23:21.087Z,61.70
2023-01-26T16:25:50.790Z,54.80
2023-01-26T16:28:19.161Z,51.50
2023-01-26T20:32:47.228Z,59.80
2023-01-26T20:35:15.358Z,63.40
2023-01-26T20:37:43.675Z,64.90
2023-01-26T20:40:13.020Z,69.40
2023-01-26T20:42:41.458Z,52.10
2023-01-26T20:45:09.751Z,79.90
2023-01-26T20:47:39.239Z,72.10
2023-01-26T20:50:11.339Z,64.70
2023-01-26T20:52:41.738Z,67.10
2023-01-26T20:55:12.043Z,86.00
2023-01-26T20:57:42.315Z,74.50
2023-01-26T21:00:11.188Z,76.20
2023-01-26T21:02:39.226Z,67.30
2023-01-26T21:05:08.510Z,70.70
2023-01-26T21:07:37.759Z,66.50
2023-01-26T21:10:05.798Z,61.80
2023-01-26T21:12:35.450Z,66.40
2023-01-26T21:15:05.198Z,64.40
2023-01-26T21:17:33.736Z,64.40
2023-01-26T21:20:01.529Z,66.90
2023-01-26T21:22:29.674Z,69.20
2023-01-26T21:24:57.541Z,77.50
2023-01-26T21:27:25.334Z,63.80
2023-01-26T21:29:53.114Z,69.30
2023-01-26T21:32:21.065Z,66.90
2023-01-26T21:34:49.484Z,74.10
2023-01-26T21:37:17.319Z,65.60
2023-01-26T21:39:45.464Z,65.30
2023-01-26T21:42:13.419Z,66.00
2023-01-26T21:45:00.099Z,71.00
2023-01-26T21:47:28.068Z,59.80
2023-01-26T21:49:58.614Z,60.40
2023-01-26T21:52:46.702Z,66.20
2023-01-26T21:55:14.679Z,71.00
2023-01-26T21:58:00.987Z,66.20
2023-01-26T22:00:31.659Z,66.80
2023-01-26T22:03:00.691Z,61.80
2023-01-26T22:05:28.798Z,72.40
2023-01-26T22:07:58.469Z,63.50
2023-01-26T22:10:26.513Z,69.30
2023-01-26T22:12:54.546Z,74.60
2023-01-26T22:15:22.384Z,68.00
2023-01-26T22:17:50.484Z,65.00
2023-01-26T22:20:18.440Z,67.70
2023-01-26T22:22:46.270Z,64.30
2023-01-26T22:25:14.637Z,80.20
2023-01-26T22:27:42.679Z,85.40
2023-01-26T22:30:11.879Z,79.10
2023-01-26T22:32:40.011Z,89.20
2023-01-26T22:35:08.452Z,74.00
2023-01-26T22:37:36.527Z,93.10
2023-01-26T22:40:05.087Z,80.30
2023-01-26T22:42:34.056Z,75.70
2023-01-26T22:45:01.964Z,82.30
2023-01-26T22:47:30.808Z,74.40
